Seiyo Honor — 3FJB9 — position and weather

sailwx.info

Track history (hours):
 
Tides and Currents Weather Stations Pressure Air Temp Water Temp Dewpoint Dewpoint Depression Visibility Wind Speed Wind Dir Waves Ship Positions

Seiyo Honor

Last reported at 2017-Oct-08 11:26 UTC. Time now 2017-Oct-19 02:03 UTC.
Position N 23°60' E 118°15'.
Warning: this ship's position is 10 days out of date.

Length 111 m; draft 7.8 m.

Type: Cargo ship. MMSI: 373133000.

Date/timePositionNaut miles runAvg speedWind from/ knotsBaromVisibWave heightAir tempDewpointWater temp
2017-Oct-08 11:26N 23°60' E 118°15'511.1
2017-Oct-08 11:00N 24°03' E 118°19'611.5
2017-Oct-08 10:30N 24°07' E 118°24'611.6
2017-Oct-08 10:00N 24°10' E 118°29'611.7
2017-Oct-08 09:30N 24°14' E 118°34'611.9
2017-Oct-08 09:00N 24°18' E 118°39'5112.6
2017-Oct-08 04:57N 24°50' E 119°22'813.2
2017-Oct-08 04:23N 24°55' E 119°28'913.1
2017-Oct-08 03:43N 25°01' E 119°36'  
Track history (hours):
 
Tides and Currents Weather Stations Pressure Air Temp Water Temp Dewpoint Dewpoint Depression Visibility Wind Speed Wind Dir Waves Ship Positions

Seiyo Honor

Last reported at 2017-Oct-08 11:26 UTC. Time now 2017-Oct-19 02:03 UTC.
Position N 23°60' E 118°15'.
Warning: this ship's position is 10 days out of date.

Length 111 m; draft 7.8 m.

Type: Cargo ship. MMSI: 373133000.

Date/timePositionNaut miles runAvg speedWind from/ knotsBaromVisibWave heightAir tempDewpointWater temp
2017-Oct-08 11:26N 23°60' E 118°15'511.1
2017-Oct-08 11:00N 24°03' E 118°19'611.5
2017-Oct-08 10:30N 24°07' E 118°24'611.6
2017-Oct-08 10:00N 24°10' E 118°29'611.7
2017-Oct-08 09:30N 24°14' E 118°34'611.9
2017-Oct-08 09:00N 24°18' E 118°39'5112.6
2017-Oct-08 04:57N 24°50' E 119°22'813.2
2017-Oct-08 04:23N 24°55' E 119°28'913.1
2017-Oct-08 03:43N 25°01' E 119°36'  

Dump ship's entire track history